Time;durP1;ratioP1;P1;durP2;ratioP2;P2;SDS_P1;SDS_P2;PMS_P1;PMS_P2;Temp;Humidity;BMP_temperature;BMP_pressure;BME280_temperature;BME280_humidity;BME280_pressure;Samples;Min_cycle;Max_cycle;Signal;HPM_P1;HPM_P2
2023/01/30 00:01:38;;;;;;;3.45;1.17;;;;;;;;;;5083504;28;20024;-83
2023/01/30 00:04:04;;;;;;;4.05;2.17;;;;;;;;;;5083786;28;20017;-81
2023/01/30 00:06:29;;;;;;;6.22;3.58;;;;;;;;;;5064308;28;20028;-83
2023/01/30 00:08:55;;;;;;;6.13;4.13;;;;;;;;;;5086079;28;20472;-83
2023/01/30 00:11:22;;;;;;;3.08;2.33;;;;;;;;;;5082299;28;20054;-83
2023/01/30 00:13:49;;;;;;;4.10;2.47;;;;;;;;;;5080467;28;20099;-83
2023/01/30 00:16:17;;;;;;;5.20;2.88;;;;;;;;;;5075821;28;20036;-81
2023/01/30 00:18:43;;;;;;;5.80;2.35;;;;;;;;;;5063067;28;20038;-83
2023/01/30 00:21:11;;;;;;;3.28;2.63;;;;;;;;;;5059753;28;20020;-83
2023/01/30 00:23:38;;;;;;;6.38;3.65;;;;;;;;;;5063981;28;20025;-83
2023/01/30 00:26:05;;;;;;;5.32;2.25;;;;;;;;;;5064257;28;20055;-83
2023/01/30 00:28:30;;;;;;;11.57;3.05;;;;;;;;;;5065755;28;20024;-84
2023/01/30 00:30:56;;;;;;;7.68;3.75;;;;;;;;;;5066102;28;20025;-83
2023/01/30 00:33:24;;;;;;;7.45;3.38;;;;;;;;;;5066693;28;20024;-83
2023/01/30 00:35:50;;;;;;;11.68;6.38;;;;;;;;;;5078671;28;20031;-83
2023/01/30 00:38:16;;;;;;;3.00;2.72;;;;;;;;;;5066921;28;20036;-83
2023/01/30 00:40:43;;;;;;;6.85;2.70;;;;;;;;;;5066448;28;20050;-82
2023/01/30 00:48:44;;;;;;;7.07;3.83;;;;;;;;;;5073612;28;20031;-82
2023/01/30 00:51:09;;;;;;;3.15;1.90;;;;;;;;;;5080062;28;20080;-83
2023/01/30 00:53:35;;;;;;;5.72;3.25;;;;;;;;;;5073092;28;20094;-82
2023/01/30 00:56:01;;;;;;;5.88;2.55;;;;;;;;;;5082567;28;20115;-83
2023/01/30 00:58:26;;;;;;;10.52;3.00;;;;;;;;;;5078463;28;20033;-83
2023/01/30 01:00:52;;;;;;;3.45;2.80;;;;;;;;;;5060184;28;20067;-84
2023/01/30 01:03:18;;;;;;;6.13;3.05;;;;;;;;;;5061279;28;20039;-84
2023/01/30 01:05:44;;;;;;;3.22;2.55;;;;;;;;;;5063594;28;20024;-83
2023/01/30 01:08:10;;;;;;;2.30;2.10;;;;;;;;;;5088109;28;20463;-84
2023/01/30 01:10:35;;;;;;;5.32;3.17;;;;;;;;;;5080022;28;20075;-83
2023/01/30 01:13:01;;;;;;;7.18;4.85;;;;;;;;;;5064347;28;20024;-83
2023/01/30 01:15:27;;;;;;;7.97;3.58;;;;;;;;;;5082324;28;20029;-83
2023/01/30 01:17:53;;;;;;;3.20;2.13;;;;;;;;;;5079620;28;20028;-82
2023/01/30 01:20:20;;;;;;;4.22;3.10;;;;;;;;;;5060559;28;20027;-82
2023/01/30 01:22:52;;;;;;;6.90;4.55;;;;;;;;;;5064199;28;20476;-83
2023/01/30 01:25:18;;;;;;;4.55;3.13;;;;;;;;;;5081304;28;20090;-83
2023/01/30 01:27:44;;;;;;;6.00;2.55;;;;;;;;;;5084648;28;20409;-83
2023/01/30 01:30:10;;;;;;;4.57;3.35;;;;;;;;;;5086167;28;20492;-83
2023/01/30 01:32:36;;;;;;;4.60;2.38;;;;;;;;;;5085159;28;20031;-82
2023/01/30 01:35:01;;;;;;;4.65;2.72;;;;;;;;;;5079336;28;20033;-83
2023/01/30 01:37:26;;;;;;;9.32;3.70;;;;;;;;;;5078879;28;20562;-83
2023/01/30 01:42:37;;;;;;;7.35;2.50;;;;;;;;;;5081610;28;20051;-83
2023/01/30 01:45:11;;;;;;;2.70;1.50;;;;;;;;;;5083197;28;20492;-83
2023/01/30 01:47:41;;;;;;;3.50;2.60;;;;;;;;;;5087760;28;20029;-84
2023/01/30 01:50:18;;;;;;;4.95;3.00;;;;;;;;;;5066289;28;20067;-83
2023/01/30 01:52:44;;;;;;;4.55;3.10;;;;;;;;;;5069369;28;20039;-83
2023/01/30 01:55:10;;;;;;;4.82;2.78;;;;;;;;;;5063508;28;20029;-83
2023/01/30 01:57:41;;;;;;;6.65;3.17;;;;;;;;;;5083298;28;20020;-80
2023/01/30 02:00:16;;;;;;;2.42;2.20;;;;;;;;;;5083492;28;20023;-83
2023/01/30 02:02:55;;;;;;;3.97;3.47;;;;;;;;;;5089874;28;20035;-84
2023/01/30 02:05:22;;;;;;;7.13;3.33;;;;;;;;;;5079882;28;20056;-84
2023/01/30 02:08:37;;;;;;;4.65;3.08;;;;;;;;;;5088091;28;20423;-85
2023/01/30 02:11:28;;;;;;;3.10;2.65;;;;;;;;;;5052943;28;20044;-85
2023/01/30 02:13:55;;;;;;;2.35;2.08;;;;;;;;;;5065449;28;20032;-83
2023/01/30 02:16:20;;;;;;;5.57;3.92;;;;;;;;;;5071242;28;20028;-84
2023/01/30 02:18:47;;;;;;;3.10;2.20;;;;;;;;;;5061740;28;20361;-83
2023/01/30 02:21:18;;;;;;;3.22;1.80;;;;;;;;;;5082576;28;20035;-81
2023/01/30 02:24:21;;;;;;;3.65;2.38;;;;;;;;;;5065678;28;20028;-83
2023/01/30 02:27:17;;;;;;;1.42;1.33;;;;;;;;;;5086791;28;20040;-83
2023/01/30 02:30:09;;;;;;;1.55;1.25;;;;;;;;;;5077145;28;20062;-83
2023/01/30 02:32:45;;;;;;;4.00;2.25;;;;;;;;;;5052599;28;20044;-83
2023/01/30 02:35:30;;;;;;;6.93;4.72;;;;;;;;;;5083271;28;20035;-84
2023/01/30 02:38:01;;;;;;;9.43;3.30;;;;;;;;;;5064010;28;20362;-83
2023/01/30 02:40:45;;;;;;;3.88;2.05;;;;;;;;;;5068922;28;20107;-82
2023/01/30 02:43:27;;;;;;;2.42;2.22;;;;;;;;;;5067074;28;20028;-83
2023/01/30 02:46:11;;;;;;;2.85;2.00;;;;;;;;;;5066961;28;20035;-83
2023/01/30 02:48:45;;;;;;;2.25;1.90;;;;;;;;;;5075477;28;20099;-83
2023/01/30 02:51:18;;;;;;;1.83;1.60;;;;;;;;;;5065030;28;20502;-82
2023/01/30 02:53:46;;;;;;;4.93;3.17;;;;;;;;;;5067609;28;20511;-82
2023/01/30 02:56:11;;;;;;;2.72;1.58;;;;;;;;;;5084111;28;20926;-83
2023/01/30 02:58:43;;;;;;;2.38;2.03;;;;;;;;;;5067824;28;20024;-83
2023/01/30 03:01:20;;;;;;;2.17;1.98;;;;;;;;;;5066043;28;20103;-82
2023/01/30 03:04:17;;;;;;;2.08;1.35;;;;;;;;;;5083903;28;20024;-85
2023/01/30 03:06:54;;;;;;;4.30;2.10;;;;;;;;;;5081390;28;20056;-84
2023/01/30 03:09:46;;;;;;;3.28;2.42;;;;;;;;;;5066252;28;20086;-84
2023/01/30 03:12:22;;;;;;;4.03;2.53;;;;;;;;;;5060476;28;20468;-87
2023/01/30 03:14:56;;;;;;;8.90;2.90;;;;;;;;;;5079167;28;20381;-83
2023/01/30 03:17:23;;;;;;;3.75;2.92;;;;;;;;;;5064983;28;20078;-84
2023/01/30 03:19:51;;;;;;;4.13;2.03;;;;;;;;;;5064867;28;20024;-85
2023/01/30 03:22:17;;;;;;;3.53;1.15;;;;;;;;;;5069712;28;20336;-85
2023/01/30 03:24:42;;;;;;;1.45;1.08;;;;;;;;;;5068549;28;20051;-86
2023/01/30 03:27:10;;;;;;;2.15;1.58;;;;;;;;;;5080259;28;20020;-85
2023/01/30 03:29:36;;;;;;;4.93;2.33;;;;;;;;;;5085064;28;20052;-85
2023/01/30 03:32:02;;;;;;;3.33;2.28;;;;;;;;;;5085091;28;20035;-85
2023/01/30 03:34:27;;;;;;;10.73;3.15;;;;;;;;;;5059014;28;20103;-85
2023/01/30 03:36:53;;;;;;;2.22;1.92;;;;;;;;;;5083569;28;20028;-85
2023/01/30 03:39:18;;;;;;;1.90;1.27;;;;;;;;;;5065796;28;20092;-87
2023/01/30 03:41:44;;;;;;;1.63;1.48;;;;;;;;;;5063300;28;20472;-84
2023/01/30 03:44:10;;;;;;;6.88;3.58;;;;;;;;;;5071391;28;20035;-84
2023/01/30 03:46:35;;;;;;;5.30;2.53;;;;;;;;;;5085591;28;20031;-83
2023/01/30 03:49:00;;;;;;;4.60;3.35;;;;;;;;;;5066654;28;20480;-83
2023/01/30 03:51:26;;;;;;;6.30;2.80;;;;;;;;;;5081086;28;20079;-84
2023/01/30 03:53:51;;;;;;;5.18;2.75;;;;;;;;;;5065149;28;20020;-84
2023/01/30 03:56:17;;;;;;;3.00;2.22;;;;;;;;;;5063466;28;20025;-84
2023/01/30 03:58:42;;;;;;;5.50;2.03;;;;;;;;;;5065285;28;20081;-85
2023/01/30 04:01:08;;;;;;;6.13;2.63;;;;;;;;;;5065045;28;20048;-84
2023/01/30 04:03:33;;;;;;;5.38;2.10;;;;;;;;;;5068422;28;20028;-82
2023/01/30 04:05:59;;;;;;;4.18;2.58;;;;;;;;;;5083179;28;20036;-83
2023/01/30 04:08:24;;;;;;;3.55;1.85;;;;;;;;;;5067933;28;20383;-85
2023/01/30 04:10:50;;;;;;;4.22;2.90;;;;;;;;;;5081576;28;20052;-83
2023/01/30 04:13:15;;;;;;;3.45;1.75;;;;;;;;;;5065306;28;20052;-83
2023/01/30 04:15:40;;;;;;;5.68;3.03;;;;;;;;;;5082229;28;20021;-83
2023/01/30 04:18:06;;;;;;;1.63;1.48;;;;;;;;;;5082635;28;20028;-82
2023/01/30 04:20:32;;;;;;;2.53;1.90;;;;;;;;;;5081091;28;20033;-84
2023/01/30 04:22:57;;;;;;;3.67;2.10;;;;;;;;;;5087576;28;20020;-83
2023/01/30 04:25:22;;;;;;;2.42;1.73;;;;;;;;;;5063745;28;20041;-82
2023/01/30 04:27:48;;;;;;;1.50;1.40;;;;;;;;;;5080191;28;20154;-83
2023/01/30 04:30:14;;;;;;;2.05;1.80;;;;;;;;;;5068783;28;20039;-84
2023/01/30 04:32:39;;;;;;;4.50;1.83;;;;;;;;;;5081223;28;20032;-82
2023/01/30 04:35:05;;;;;;;5.28;3.53;;;;;;;;;;5062685;28;20095;-85
2023/01/30 04:37:30;;;;;;;4.82;3.17;;;;;;;;;;5060399;28;20032;-83
2023/01/30 04:39:56;;;;;;;1.77;1.63;;;;;;;;;;5085502;28;20048;-86
2023/01/30 04:42:21;;;;;;;6.60;2.42;;;;;;;;;;5064265;28;20118;-84
2023/01/30 04:44:47;;;;;;;3.45;1.92;;;;;;;;;;5061556;28;20052;-82
2023/01/30 04:47:12;;;;;;;1.88;1.67;;;;;;;;;;5063881;28;20399;-82
2023/01/30 04:49:37;;;;;;;5.38;3.10;;;;;;;;;;5085690;28;20029;-83
2023/01/30 04:52:03;;;;;;;5.88;2.47;;;;;;;;;;5062410;28;20039;-84
2023/01/30 04:54:28;;;;;;;6.88;3.08;;;;;;;;;;5084561;28;20028;-84
2023/01/30 04:56:54;;;;;;;14.05;6.15;;;;;;;;;;5081029;28;20056;-81
2023/01/30 04:59:19;;;;;;;5.50;2.97;;;;;;;;;;5086280;28;20070;-82
2023/01/30 05:01:45;;;;;;;5.63;3.65;;;;;;;;;;5065806;28;20075;-84
2023/01/30 05:04:10;;;;;;;3.25;2.60;;;;;;;;;;5087442;28;20380;-83
2023/01/30 05:06:36;;;;;;;7.85;3.10;;;;;;;;;;5063922;28;20384;-83
2023/01/30 05:09:02;;;;;;;4.15;2.45;;;;;;;;;;5088491;28;20391;-81
2023/01/30 05:11:29;;;;;;;5.85;2.47;;;;;;;;;;5083933;28;20122;-84
2023/01/30 05:13:55;;;;;;;4.68;2.95;;;;;;;;;;5068203;28;20381;-83
2023/01/30 05:16:21;;;;;;;5.78;3.30;;;;;;;;;;5067123;28;20024;-84
2023/01/30 05:18:47;;;;;;;8.07;4.30;;;;;;;;;;5080816;28;20095;-84
2023/01/30 05:21:18;;;;;;;11.07;5.32;;;;;;;;;;5062045;28;20108;-83
2023/01/30 05:23:43;;;;;;;4.70;2.92;;;;;;;;;;5083328;28;20058;-85
2023/01/30 05:26:11;;;;;;;5.18;3.42;;;;;;;;;;5062463;28;20091;-85
2023/01/30 05:28:36;;;;;;;5.32;2.53;;;;;;;;;;5061906;28;20392;-85
2023/01/30 05:31:03;;;;;;;2.67;2.08;;;;;;;;;;5065798;28;20033;-84
2023/01/30 05:33:29;;;;;;;5.43;2.42;;;;;;;;;;5063677;28;20095;-86
2023/01/30 05:35:54;;;;;;;4.80;2.13;;;;;;;;;;5066612;28;20494;-82
2023/01/30 05:38:21;;;;;;;9.23;5.03;;;;;;;;;;5082028;28;20127;-82
2023/01/30 05:41:00;;;;;;;3.63;3.00;;;;;;;;;;5059128;28;20025;-83
2023/01/30 05:43:29;;;;;;;4.97;2.83;;;;;;;;;;5062159;28;20029;-83
2023/01/30 05:45:56;;;;;;;4.20;2.55;;;;;;;;;;5064771;28;20327;-83
2023/01/30 05:48:22;;;;;;;5.10;3.97;;;;;;;;;;5057794;28;20032;-84
2023/01/30 05:50:52;;;;;;;4.82;2.78;;;;;;;;;;5061923;28;20020;-81
2023/01/30 05:53:18;;;;;;;3.10;1.98;;;;;;;;;;5065709;28;20024;-84
2023/01/30 05:55:44;;;;;;;6.10;3.78;;;;;;;;;;5065695;28;20077;-82
2023/01/30 05:58:10;;;;;;;15.15;3.80;;;;;;;;;;5063028;28;20029;-82
2023/01/30 06:00:35;;;;;;;3.00;2.67;;;;;;;;;;5084674;28;20052;-83
2023/01/30 06:03:00;;;;;;;3.28;2.63;;;;;;;;;;5062139;28;20020;-82
2023/01/30 06:05:26;;;;;;;6.95;2.97;;;;;;;;;;5061206;28;20380;-84
2023/01/30 06:07:51;;;;;;;7.22;2.83;;;;;;;;;;5062363;28;20036;-84
2023/01/30 06:10:17;;;;;;;12.02;5.60;;;;;;;;;;5058451;28;20036;-84
2023/01/30 06:12:42;;;;;;;11.88;3.90;;;;;;;;;;5058615;28;20032;-84
2023/01/30 06:15:08;;;;;;;8.32;5.43;;;;;;;;;;5062338;28;20124;-82
2023/01/30 06:17:34;;;;;;;3.88;2.22;;;;;;;;;;5060304;28;20058;-83
2023/01/30 06:19:59;;;;;;;3.40;2.38;;;;;;;;;;5063383;28;20021;-84
2023/01/30 06:22:25;;;;;;;8.43;3.53;;;;;;;;;;5062993;28;20039;-82
2023/01/30 06:24:50;;;;;;;7.93;4.15;;;;;;;;;;5061510;28;20068;-82
2023/01/30 06:27:15;;;;;;;3.72;2.95;;;;;;;;;;5061267;28;20282;-83
2023/01/30 06:29:41;;;;;;;5.15;3.20;;;;;;;;;;5063084;28;20461;-83
2023/01/30 06:32:08;;;;;;;9.57;4.40;;;;;;;;;;5060552;28;20029;-84
2023/01/30 06:34:33;;;;;;;7.20;3.25;;;;;;;;;;5059942;28;20504;-83
2023/01/30 06:36:59;;;;;;;12.85;5.72;;;;;;;;;;5058491;28;20025;-83
2023/01/30 06:39:24;;;;;;;6.75;5.13;;;;;;;;;;5059482;28;20037;-84
2023/01/30 06:41:50;;;;;;;8.18;3.83;;;;;;;;;;5062001;28;20025;-82
2023/01/30 06:44:15;;;;;;;10.10;3.33;;;;;;;;;;5060399;28;20032;-83
2023/01/30 06:46:40;;;;;;;9.70;3.03;;;;;;;;;;5062963;28;20024;-83
2023/01/30 06:49:06;;;;;;;4.97;3.28;;;;;;;;;;5054110;28;20033;-83
2023/01/30 06:51:32;;;;;;;8.25;4.63;;;;;;;;;;5063183;28;20383;-84
2023/01/30 06:53:57;;;;;;;2.55;2.10;;;;;;;;;;5063710;28;20037;-83
2023/01/30 06:56:22;;;;;;;7.57;4.47;;;;;;;;;;5057950;28;20024;-84
2023/01/30 06:58:48;;;;;;;9.65;5.32;;;;;;;;;;5058356;28;20032;-84
2023/01/30 07:01:13;;;;;;;6.22;4.72;;;;;;;;;;5058204;28;20025;-83
2023/01/30 07:03:39;;;;;;;13.35;5.07;;;;;;;;;;5056874;28;20040;-85
2023/01/30 07:06:04;;;;;;;6.68;4.55;;;;;;;;;;5059392;28;20039;-83
2023/01/30 07:08:30;;;;;;;9.63;5.50;;;;;;;;;;5062981;28;20107;-84
2023/01/30 07:10:55;;;;;;;6.55;4.18;;;;;;;;;;5060616;28;20021;-86
2023/01/30 07:13:20;;;;;;;10.20;5.85;;;;;;;;;;5060474;28;20050;-83
2023/01/30 07:15:46;;;;;;;6.28;4.80;;;;;;;;;;5059336;28;20016;-82
2023/01/30 07:18:12;;;;;;;10.73;5.82;;;;;;;;;;5064861;28;20447;-83
2023/01/30 07:20:40;;;;;;;8.05;4.85;;;;;;;;;;5059783;28;20112;-85
2023/01/30 07:23:06;;;;;;;7.80;4.30;;;;;;;;;;5056415;28;20479;-84
2023/01/30 07:25:31;;;;;;;12.07;4.65;;;;;;;;;;5072802;28;20124;-83
2023/01/30 07:27:59;;;;;;;6.55;5.30;;;;;;;;;;5056192;28;20032;-85
2023/01/30 07:30:27;;;;;;;7.13;4.70;;;;;;;;;;5077755;28;20454;-83
2023/01/30 07:32:54;;;;;;;4.80;3.65;;;;;;;;;;5081914;28;20036;-83
2023/01/30 07:35:21;;;;;;;9.80;5.68;;;;;;;;;;5080125;28;20029;-85
2023/01/30 07:37:47;;;;;;;4.85;3.17;;;;;;;;;;5063428;28;20020;-84
2023/01/30 07:40:14;;;;;;;8.43;5.30;;;;;;;;;;5074949;28;20021;-82
2023/01/30 07:42:40;;;;;;;4.47;3.97;;;;;;;;;;5060764;28;20024;-84
2023/01/30 07:45:06;;;;;;;3.40;2.55;;;;;;;;;;5078637;28;20107;-82
2023/01/30 07:47:31;;;;;;;5.35;2.88;;;;;;;;;;5077239;28;20499;-83
2023/01/30 07:49:57;;;;;;;6.15;3.97;;;;;;;;;;5064333;28;20082;-81
2023/01/30 07:52:22;;;;;;;11.57;4.95;;;;;;;;;;5079470;28;20034;-83
2023/01/30 07:54:48;;;;;;;4.05;2.65;;;;;;;;;;5061562;28;20032;-84
2023/01/30 07:57:13;;;;;;;8.45;5.00;;;;;;;;;;5078297;28;20032;-83
2023/01/30 07:59:38;;;;;;;5.18;3.08;;;;;;;;;;5078670;28;20025;-82
2023/01/30 08:02:05;;;;;;;5.78;5.15;;;;;;;;;;5074531;28;20423;-82
2023/01/30 08:04:30;;;;;;;8.50;3.78;;;;;;;;;;5065674;28;20066;-80
2023/01/30 08:06:56;;;;;;;7.32;3.90;;;;;;;;;;5063408;28;20048;-83
2023/01/30 08:09:22;;;;;;;8.68;4.55;;;;;;;;;;5064076;28;20081;-83
2023/01/30 08:11:48;;;;;;;5.00;2.40;;;;;;;;;;5060854;28;20518;-83
2023/01/30 08:14:13;;;;;;;3.10;2.80;;;;;;;;;;5059774;28;20056;-83
2023/01/30 08:16:39;;;;;;;7.05;3.75;;;;;;;;;;5079117;28;20027;-82
2023/01/30 08:19:05;;;;;;;8.48;3.60;;;;;;;;;;5066032;28;20042;-83
2023/01/30 08:21:30;;;;;;;4.20;3.83;;;;;;;;;;5077171;28;20058;-82
2023/01/30 08:23:56;;;;;;;12.98;5.30;;;;;;;;;;5077036;28;20036;-84
2023/01/30 08:26:21;;;;;;;5.28;2.85;;;;;;;;;;5061169;28;20435;-83
2023/01/30 08:28:47;;;;;;;4.78;2.83;;;;;;;;;;5061972;28;20034;-85
2023/01/30 08:31:14;;;;;;;5.80;4.65;;;;;;;;;;5078413;28;20031;-83
2023/01/30 08:33:39;;;;;;;5.72;4.47;;;;;;;;;;5085530;28;20020;-81
2023/01/30 08:36:05;;;;;;;3.83;3.13;;;;;;;;;;5083141;28;20495;-82
2023/01/30 08:38:31;;;;;;;9.95;4.38;;;;;;;;;;5085899;28;20878;-81
2023/01/30 08:40:56;;;;;;;8.10;3.25;;;;;;;;;;5066198;28;20028;-82
2023/01/30 08:43:23;;;;;;;7.95;4.43;;;;;;;;;;5067828;28;20392;-82
2023/01/30 08:45:48;;;;;;;5.95;3.63;;;;;;;;;;5087904;28;20024;-84
2023/01/30 08:48:14;;;;;;;2.55;1.95;;;;;;;;;;5085445;28;20047;-83
2023/01/30 08:50:39;;;;;;;7.50;5.18;;;;;;;;;;5068504;28;20743;-83
2023/01/30 08:53:07;;;;;;;4.10;2.78;;;;;;;;;;5084609;28;20036;-84
2023/01/30 08:55:34;;;;;;;6.43;3.50;;;;;;;;;;5065305;28;20066;-82
2023/01/30 08:57:59;;;;;;;4.00;3.50;;;;;;;;;;5067202;28;20032;-82
2023/01/30 09:00:26;;;;;;;8.98;3.63;;;;;;;;;;5080564;28;20019;-82
2023/01/30 09:02:56;;;;;;;2.90;2.60;;;;;;;;;;5065650;28;20070;-82
2023/01/30 09:05:22;;;;;;;;;;;;;;;;;;5085605;28;20024;-83
2023/01/30 09:07:48;;;;;;;2.63;2.42;;;;;;;;;;5062278;28;19920;-82
2023/01/30 09:10:13;;;;;;;3.22;2.95;;;;;;;;;;5065492;28;20020;-81
2023/01/30 09:12:39;;;;;;;3.70;2.58;;;;;;;;;;5069767;28;20079;-83
2023/01/30 09:15:05;;;;;;;13.63;3.45;;;;;;;;;;5083378;28;20058;-83
2023/01/30 09:17:30;;;;;;;3.13;2.72;;;;;;;;;;5069387;28;20103;-83
2023/01/30 09:19:56;;;;;;;5.65;3.03;;;;;;;;;;5089311;28;20067;-82
2023/01/30 09:22:21;;;;;;;6.00;2.25;;;;;;;;;;5085182;28;20028;-82
2023/01/30 09:24:47;;;;;;;6.00;3.90;;;;;;;;;;5067378;28;20411;-81
2023/01/30 09:27:12;;;;;;;2.80;2.15;;;;;;;;;;5087052;28;20020;-82
2023/01/30 09:29:38;;;;;;;3.13;1.88;;;;;;;;;;5088730;28;20024;-83
2023/01/30 09:32:03;;;;;;;9.10;3.78;;;;;;;;;;5063837;28;20035;-82
2023/01/30 09:34:29;;;;;;;9.35;4.32;;;;;;;;;;5069627;28;20028;-83
2023/01/30 09:36:58;;;;;;;4.22;2.97;;;;;;;;;;5065598;28;20020;-82
2023/01/30 09:39:24;;;;;;;1.77;1.67;;;;;;;;;;5068135;28;20027;-84
2023/01/30 09:42:18;;;;;;;3.53;2.40;;;;;;;;;;5071581;28;20024;-82
2023/01/30 09:44:43;;;;;;;4.75;2.67;;;;;;;;;;5087955;28;20032;-81
2023/01/30 09:47:18;;;;;;;6.50;3.13;;;;;;;;;;5066933;28;20027;-83
2023/01/30 09:50:20;;;;;;;2.15;1.60;;;;;;;;;;5066679;28;20103;-82
2023/01/30 09:53:09;;;;;;;6.10;3.50;;;;;;;;;;5083035;28;20021;-81
2023/01/30 09:55:38;;;;;;;3.28;1.80;;;;;;;;;;5072004;28;20028;-81
2023/01/30 09:58:05;;;;;;;5.35;2.90;;;;;;;;;;5062204;28;20032;-83
2023/01/30 10:00:42;;;;;;;1.85;1.67;;;;;;;;;;5066719;28;20055;-81
2023/01/30 10:03:07;;;;;;;7.03;2.67;;;;;;;;;;5080529;28;20035;-81
2023/01/30 10:05:53;;;;;;;4.53;3.00;;;;;;;;;;5076348;28;20020;-82
2023/01/30 10:08:36;;;;;;;6.88;3.25;;;;;;;;;;5073016;28;20084;-82
2023/01/30 10:11:04;;;;;;;4.65;3.13;;;;;;;;;;5077977;28;20519;-82
2023/01/30 10:13:51;;;;;;;3.08;2.88;;;;;;;;;;5063844;28;20074;-83
2023/01/30 10:16:53;;;;;;;1.88;1.42;;;;;;;;;;5065604;28;20032;-83
2023/01/30 10:19:49;;;;;;;5.18;2.85;;;;;;;;;;5023626;28;20040;-83
2023/01/30 10:22:54;;;;;;;3.63;1.58;;;;;;;;;;5081130;28;20024;-83
2023/01/30 10:25:31;;;;;;;9.27;3.90;;;;;;;;;;5052942;28;20397;-82
2023/01/30 10:28:02;;;;;;;9.18;4.47;;;;;;;;;;5057886;28;20615;-85
2023/01/30 10:30:28;;;;;;;5.60;3.88;;;;;;;;;;5083233;28;20544;-82
2023/01/30 10:33:01;;;;;;;7.18;4.43;;;;;;;;;;5083941;28;20037;-83
2023/01/30 10:35:33;;;;;;;7.20;3.92;;;;;;;;;;5069529;28;20106;-80
2023/01/30 10:38:21;;;;;;;3.58;3.28;;;;;;;;;;5086100;28;20059;-78
2023/01/30 10:40:55;;;;;;;5.95;4.07;;;;;;;;;;5057567;28;20050;-82
2023/01/30 10:43:42;;;;;;;1.95;1.75;;;;;;;;;;5062040;28;20024;-80
2023/01/30 10:46:53;;;;;;;2.15;1.98;;;;;;;;;;5075108;28;20032;-80
2023/01/30 10:49:35;;;;;;;4.70;3.42;;;;;;;;;;5039676;28;20080;-79
2023/01/30 10:53:12;;;;;;;2.25;2.10;;;;;;;;;;5057266;28;20393;-83
2023/01/30 10:55:47;;;;;;;1.45;1.35;;;;;;;;;;5072495;28;20029;-81
2023/01/30 10:58:22;;;;;;;4.63;4.15;;;;;;;;;;5060276;28;20125;-81
2023/01/30 11:00:59;;;;;;;6.47;2.63;;;;;;;;;;5057522;28;20027;-81
2023/01/30 11:03:31;;;;;;;8.57;2.35;;;;;;;;;;5051450;28;20486;-81
2023/01/30 11:06:05;;;;;;;6.45;3.08;;;;;;;;;;5091189;28;20488;-83
2023/01/30 11:08:33;;;;;;;6.63;3.70;;;;;;;;;;5057877;28;20025;-79
2023/01/30 11:10:59;;;;;;;2.13;1.92;;;;;;;;;;5059265;28;20033;-83
2023/01/30 11:13:30;;;;;;;7.63;4.22;;;;;;;;;;5057536;28;20036;-83
2023/01/30 11:15:58;;;;;;;6.85;3.58;;;;;;;;;;5057604;28;20087;-82
2023/01/30 11:18:25;;;;;;;6.72;2.67;;;;;;;;;;5057844;28;20036;-82
2023/01/30 11:21:04;;;;;;;7.97;4.70;;;;;;;;;;5054468;28;20017;-82
2023/01/30 11:23:38;;;;;;;3.78;1.90;;;;;;;;;;5050146;28;20115;-83
2023/01/30 11:26:04;;;;;;;6.10;4.22;;;;;;;;;;5061056;28;20536;-82
2023/01/30 11:28:38;;;;;;;8.73;4.55;;;;;;;;;;5054808;28;20112;-84
2023/01/30 11:31:05;;;;;;;4.30;2.40;;;;;;;;;;5054731;28;20056;-83
2023/01/30 11:33:37;;;;;;;4.85;3.47;;;;;;;;;;5057524;28;20038;-82
2023/01/30 11:36:23;;;;;;;5.57;2.92;;;;;;;;;;5061422;28;20051;-83
2023/01/30 11:39:12;;;;;;;5.18;3.50;;;;;;;;;;5062033;28;20396;-85
2023/01/30 11:41:43;;;;;;;13.20;4.72;;;;;;;;;;5049932;28;20496;-88
2023/01/30 11:44:10;;;;;;;6.72;4.38;;;;;;;;;;5055888;28;20025;-81
2023/01/30 11:46:38;;;;;;;6.97;3.13;;;;;;;;;;5064032;28;20044;-86
2023/01/30 11:49:13;;;;;;;8.20;3.25;;;;;;;;;;5061011;28;20096;-81
2023/01/30 11:51:41;;;;;;;5.32;3.50;;;;;;;;;;5052257;28;20049;-86
2023/01/30 11:54:15;;;;;;;7.22;4.22;;;;;;;;;;5058923;28;20478;-85
2023/01/30 11:56:51;;;;;;;4.50;4.05;;;;;;;;;;5056923;28;20393;-83
2023/01/30 11:59:27;;;;;;;7.22;3.22;;;;;;;;;;5057040;28;20029;-84
2023/01/30 12:02:03;;;;;;;3.53;2.63;;;;;;;;;;5055962;28;20028;-82
2023/01/30 12:04:28;;;;;;;7.43;3.42;;;;;;;;;;5040277;28;20485;-84
2023/01/30 12:07:18;;;;;;;11.73;3.63;;;;;;;;;;5042225;28;20052;-83
2023/01/30 12:09:44;;;;;;;10.65;3.13;;;;;;;;;;5043411;28;20095;-85
2023/01/30 12:12:31;;;;;;;4.20;3.60;;;;;;;;;;5042093;28;20497;-83
2023/01/30 12:15:15;;;;;;;3.20;2.67;;;;;;;;;;5044413;28;20423;-86
2023/01/30 12:18:02;;;;;;;3.03;1.83;;;;;;;;;;5046728;28;20034;-87
2023/01/30 12:20:52;;;;;;;3.72;2.83;;;;;;;;;;5043374;28;20032;-88
2023/01/30 12:23:46;;;;;;;4.63;3.03;;;;;;;;;;5076266;28;20032;-87
2023/01/30 12:26:23;;;;;;;3.88;3.15;;;;;;;;;;5038499;28;20057;-85
2023/01/30 12:29:00;;;;;;;4.75;3.67;;;;;;;;;;5044807;28;20160;-86
2023/01/30 12:31:36;;;;;;;3.25;2.53;;;;;;;;;;5048182;28;20047;-85
2023/01/30 12:34:03;;;;;;;3.30;3.00;;;;;;;;;;5045305;28;20036;-88
2023/01/30 12:36:43;;;;;;;6.47;4.78;;;;;;;;;;5040658;28;20029;-88
2023/01/30 12:39:57;;;;;;;5.30;3.00;;;;;;;;;;5039275;28;20107;-86
2023/01/30 12:42:50;;;;;;;6.63;2.22;;;;;;;;;;5046162;28;20503;-88
2023/01/30 12:45:28;;;;;;;4.43;3.78;;;;;;;;;;5037916;28;20033;-87
2023/01/30 12:47:53;;;;;;;4.35;3.22;;;;;;;;;;5043275;28;20370;-89
2023/01/30 12:50:56;;;;;;;9.90;3.00;;;;;;;;;;5041005;28;20109;-87
2023/01/30 12:53:46;;;;;;;6.55;4.30;;;;;;;;;;5046206;28;20032;-88
2023/01/30 12:56:52;;;;;;;7.20;3.03;;;;;;;;;;5045540;28;20041;-89
2023/01/30 12:59:25;;;;;;;5.32;3.80;;;;;;;;;;5043352;28;20021;-88
2023/01/30 13:01:53;;;;;;;3.08;2.72;;;;;;;;;;5045205;28;20431;-87
2023/01/30 13:04:55;;;;;;;7.93;4.30;;;;;;;;;;5044986;28;20040;-90
2023/01/30 13:08:09;;;;;;;5.80;3.67;;;;;;;;;;5041615;28;20036;-88
2023/01/30 13:10:40;;;;;;;6.55;3.92;;;;;;;;;;5015230;28;20057;-87
2023/01/30 13:13:15;;;;;;;3.88;2.92;;;;;;;;;;5003540;28;20041;-86
2023/01/30 13:15:46;;;;;;;5.25;3.33;;;;;;;;;;5038393;28;20041;-86
2023/01/30 13:18:22;;;;;;;7.35;4.07;;;;;;;;;;5048428;28;20120;-86
2023/01/30 13:20:57;;;;;;;12.65;3.80;;;;;;;;;;5038437;28;20474;-87
2023/01/30 13:23:59;;;;;;;4.00;3.10;;;;;;;;;;5047488;28;20384;-87
2023/01/30 13:26:35;;;;;;;9.07;4.57;;;;;;;;;;5041572;28;20457;-87
2023/01/30 13:29:15;;;;;;;7.35;3.28;;;;;;;;;;5038019;28;20025;-88
2023/01/30 13:31:51;;;;;;;8.60;3.60;;;;;;;;;;5041382;28;20025;-86
2023/01/30 13:34:29;;;;;;;6.63;4.32;;;;;;;;;;5044556;28;20029;-87
2023/01/30 13:37:02;;;;;;;7.45;4.22;;;;;;;;;;5041322;28;20055;-88
2023/01/30 13:39:41;;;;;;;3.33;2.97;;;;;;;;;;5041868;28;20025;-88
2023/01/30 13:42:33;;;;;;;4.32;2.58;;;;;;;;;;5044052;28;20060;-84
2023/01/30 13:45:00;;;;;;;5.28;2.72;;;;;;;;;;5035049;28;20389;-85
2023/01/30 13:47:47;;;;;;;3.63;3.33;;;;;;;;;;5044681;28;20087;-84
2023/01/30 13:50:35;;;;;;;5.05;4.45;;;;;;;;;;5051654;28;20029;-84
2023/01/30 13:53:06;;;;;;;6.32;4.00;;;;;;;;;;5043003;28;20041;-82
2023/01/30 13:55:41;;;;;;;7.35;4.53;;;;;;;;;;5050839;28;20035;-83
2023/01/30 13:58:13;;;;;;;3.40;1.92;;;;;;;;;;5040987;28;20020;-85
2023/01/30 14:00:38;;;;;;;8.02;2.67;;;;;;;;;;5046261;28;20040;-83
2023/01/30 14:03:07;;;;;;;3.60;2.72;;;;;;;;;;5047253;28;20037;-86
2023/01/30 14:05:51;;;;;;;7.20;4.22;;;;;;;;;;5047117;28;20409;-86
2023/01/30 14:08:22;;;;;;;13.25;6.15;;;;;;;;;;5048565;28;20055;-84
2023/01/30 14:10:48;;;;;;;5.45;3.05;;;;;;;;;;5042677;28;20664;-83
2023/01/30 14:13:16;;;;;;;6.45;3.05;;;;;;;;;;5048291;28;20032;-86
2023/01/30 14:16:03;;;;;;;3.42;2.75;;;;;;;;;;5054351;28;20060;-84
2023/01/30 14:18:37;;;;;;;9.43;4.55;;;;;;;;;;5042925;28;20497;-86
2023/01/30 14:21:23;;;;;;;8.00;4.05;;;;;;;;;;5048938;28;20044;-86
2023/01/30 14:24:05;;;;;;;6.03;4.22;;;;;;;;;;5034239;28;20029;-86
2023/01/30 14:26:49;;;;;;;6.18;3.80;;;;;;;;;;5037027;28;20471;-85
2023/01/30 14:29:36;;;;;;;5.95;2.22;;;;;;;;;;5070836;28;20063;-84
2023/01/30 14:32:22;;;;;;;5.15;3.75;;;;;;;;;;5043792;28;20025;-83
2023/01/30 14:34:59;;;;;;;10.75;4.10;;;;;;;;;;5039342;28;20032;-84
2023/01/30 14:37:34;;;;;;;7.80;4.15;;;;;;;;;;5039298;28;20476;-86
2023/01/30 14:39:59;;;;;;;6.88;3.45;;;;;;;;;;5038356;28;20112;-82
2023/01/30 14:42:27;;;;;;;5.95;3.70;;;;;;;;;;5039788;28;20167;-83
2023/01/30 14:45:12;;;;;;;8.55;4.05;;;;;;;;;;5036423;28;20049;-86
2023/01/30 14:47:40;;;;;;;4.65;3.15;;;;;;;;;;5036286;28;20179;-83
2023/01/30 14:50:19;;;;;;;9.52;4.57;;;;;;;;;;5042568;28;20025;-82
2023/01/30 14:52:48;;;;;;;4.15;3.45;;;;;;;;;;5038215;28;20041;-83
2023/01/30 14:55:28;;;;;;;12.00;5.93;;;;;;;;;;5042609;28;20041;-84
2023/01/30 14:57:57;;;;;;;16.27;6.50;;;;;;;;;;5040021;28;20029;-84
2023/01/30 15:00:28;;;;;;;16.20;7.93;;;;;;;;;;5039320;28;20021;-81
2023/01/30 15:03:00;;;;;;;16.02;6.40;;;;;;;;;;5027747;28;20067;-82
2023/01/30 15:05:32;;;;;;;7.47;5.53;;;;;;;;;;5038626;28;20079;-83
2023/01/30 15:08:10;;;;;;;4.68;3.63;;;;;;;;;;5042515;28;20111;-84
2023/01/30 15:10:45;;;;;;;8.40;3.90;;;;;;;;;;5038501;28;20102;-83
2023/01/30 15:13:35;;;;;;;11.35;5.78;;;;;;;;;;5038903;28;20035;-84
2023/01/30 15:16:16;;;;;;;15.07;6.47;;;;;;;;;;5034908;28;20032;-83
2023/01/30 15:19:05;;;;;;;7.80;5.63;;;;;;;;;;5039441;28;20549;-82